Time;durP1;ratioP1;P1;durP2;ratioP2;P2;SDS_P1;SDS_P2;PMS_P1;PMS_P2;Temp;Humidity;BMP_temperature;BMP_pressure;BME280_temperature;BME280_humidity;BME280_pressure;Samples;Min_cycle;Max_cycle;Signal;HPM_P1;HPM_P2
2021/01/15 00:01:47;;;;;;;5.43;4.00;;;1.60;99.90;;;;;;4968810;28;20204;-84
2021/01/15 00:04:12;;;;;;;5.33;4.83;;;1.50;99.90;;;;;;4987174;28;20228;-86
2021/01/15 00:06:38;;;;;;;4.97;4.23;;;1.50;99.90;;;;;;4986248;28;20198;-85
2021/01/15 00:09:04;;;;;;;5.73;3.10;;;1.50;99.90;;;;;;4969788;28;20721;-83
2021/01/15 00:11:32;;;;;;;3.80;3.23;;;1.60;99.90;;;;;;4989315;28;20191;-83
2021/01/15 00:13:59;;;;;;;4.57;2.97;;;1.50;99.90;;;;;;4969644;28;20477;-83
2021/01/15 00:16:29;;;;;;;4.03;2.80;;;1.50;99.90;;;;;;4971899;28;20472;-85
2021/01/15 00:18:56;;;;;;;11.27;3.80;;;1.50;99.90;;;;;;4985661;28;20490;-84
2021/01/15 00:21:26;;;;;;;5.63;2.90;;;1.50;99.90;;;;;;4988982;28;20418;-86
2021/01/15 00:23:54;;;;;;;5.53;2.90;;;1.50;99.90;;;;;;4985420;28;20459;-86
2021/01/15 00:26:23;;;;;;;3.40;2.60;;;1.50;99.90;;;;;;4988235;28;20858;-83
2021/01/15 00:28:50;;;;;;;3.80;3.10;;;1.50;99.90;;;;;;4986791;28;20439;-86
2021/01/15 00:31:16;;;;;;;3.60;3.10;;;1.50;99.90;;;;;;4983751;28;20421;-85
2021/01/15 00:33:42;;;;;;;3.17;2.87;;;1.40;99.90;;;;;;4986591;28;20468;-85
2021/01/15 00:36:08;;;;;;;3.23;2.93;;;1.40;99.90;;;;;;4986734;28;20472;-83
2021/01/15 00:38:35;;;;;;;5.20;3.10;;;1.40;99.90;;;;;;4987278;28;20831;-84
2021/01/15 00:41:05;;;;;;;4.70;3.47;;;1.40;99.90;;;;;;4962652;28;20441;-85
2021/01/15 00:43:31;;;;;;;4.47;2.90;;;1.40;99.90;;;;;;4986643;28;20455;-85
2021/01/15 00:45:56;;;;;;;3.40;2.63;;;1.40;99.90;;;;;;4984446;28;20444;-85
2021/01/15 00:48:22;;;;;;;5.50;3.23;;;1.40;99.90;;;;;;4955008;28;21008;-84
2021/01/15 00:50:48;;;;;;;4.20;2.80;;;1.30;99.90;;;;;;4967930;28;20198;-85
2021/01/15 00:53:14;;;;;;;3.27;2.40;;;1.30;99.90;;;;;;4983964;28;20244;-85
2021/01/15 00:55:40;;;;;;;8.30;3.57;;;1.30;99.90;;;;;;4980650;28;20205;-83
2021/01/15 00:58:06;;;;;;;3.73;3.23;;;1.30;99.90;;;;;;4983227;28;20930;-84
2021/01/15 01:00:32;;;;;;;3.90;3.50;;;1.20;99.90;;;;;;4988926;28;20437;-84
2021/01/15 01:02:58;;;;;;;3.03;2.70;;;1.20;99.90;;;;;;4985088;28;20211;-83
2021/01/15 01:05:24;;;;;;;2.30;2.10;;;1.20;99.90;;;;;;4967728;28;21226;-83
2021/01/15 01:07:51;;;;;;;4.53;2.40;;;1.10;99.90;;;;;;4980247;28;20277;-86
2021/01/15 01:10:18;;;;;;;7.30;3.23;;;1.10;99.90;;;;;;4966884;28;20440;-83
2021/01/15 01:12:44;;;;;;;3.40;3.10;;;1.00;99.90;;;;;;4969984;28;21157;-83
2021/01/15 01:15:11;;;;;;;3.93;3.03;;;1.00;99.90;;;;;;4965172;28;20562;-84
2021/01/15 01:17:38;;;;;;;2.70;2.23;;;1.00;99.90;;;;;;4983093;28;20436;-84
2021/01/15 01:20:06;;;;;;;5.90;2.53;;;0.90;99.90;;;;;;4980854;28;20866;-83
2021/01/15 01:22:32;;;;;;;3.83;3.03;;;0.90;99.90;;;;;;5004189;28;20524;-85
2021/01/15 01:24:57;;;;;;;4.13;3.70;;;0.90;99.90;;;;;;4980089;28;20461;-85
2021/01/15 01:27:23;;;;;;;4.13;2.90;;;0.80;99.90;;;;;;4982927;28;20196;-85
2021/01/15 01:29:49;;;;;;;4.30;2.90;;;0.80;99.90;;;;;;4980810;28;20199;-84
2021/01/15 01:32:14;;;;;;;4.90;4.00;;;0.70;99.90;;;;;;4970090;28;20194;-85
2021/01/15 01:34:40;;;;;;;5.87;2.97;;;0.70;99.90;;;;;;4948046;28;20196;-85
2021/01/15 01:37:06;;;;;;;6.13;2.90;;;0.70;99.90;;;;;;4982758;28;20208;-85
2021/01/15 01:39:32;;;;;;;5.93;3.53;;;0.60;99.90;;;;;;4983799;28;20705;-85
2021/01/15 01:41:57;;;;;;;2.93;2.10;;;0.60;99.90;;;;;;4984075;28;20272;-85
2021/01/15 01:44:24;;;;;;;2.80;2.30;;;0.60;99.90;;;;;;4983621;28;20456;-84
2021/01/15 01:46:51;;;;;;;3.80;2.40;;;0.50;99.90;;;;;;4981862;28;20189;-84
2021/01/15 01:49:17;;;;;;;3.30;2.47;;;0.50;99.90;;;;;;4985095;28;20434;-84
2021/01/15 01:51:45;;;;;;;4.20;3.50;;;0.50;99.90;;;;;;4983174;28;20431;-86
2021/01/15 01:54:12;;;;;;;5.33;3.50;;;0.50;99.90;;;;;;4983297;28;20461;-84
2021/01/15 01:56:39;;;;;;;3.93;2.47;;;0.40;99.90;;;;;;4983521;28;20548;-84
2021/01/15 01:59:06;;;;;;;3.00;2.37;;;0.40;99.90;;;;;;4983993;28;21067;-83
2021/01/15 02:01:32;;;;;;;4.83;4.33;;;0.40;99.90;;;;;;4978137;28;20425;-85
2021/01/15 02:04:02;;;;;;;6.93;2.80;;;0.40;99.90;;;;;;4964759;28;21091;-84
2021/01/15 02:06:28;;;;;;;7.47;3.70;;;0.40;99.90;;;;;;4984463;28;20677;-82
2021/01/15 02:08:54;;;;;;;2.90;2.70;;;0.40;99.90;;;;;;4981742;28;20529;-83
2021/01/15 02:11:44;;;;;;;4.53;3.00;;;0.40;99.90;;;;;;4985641;28;20961;-84
2021/01/15 02:14:27;;;;;;;2.97;2.67;;;0.30;99.90;;;;;;4971650;28;20457;-85
2021/01/15 02:16:55;;;;;;;2.70;2.40;;;0.30;99.90;;;;;;4983112;28;20471;-85
2021/01/15 02:19:36;;;;;;;2.70;2.50;;;0.30;99.90;;;;;;4959041;28;21119;-85
2021/01/15 02:22:24;;;;;;;2.80;2.53;;;0.30;99.90;;;;;;4976303;28;21232;-83
2021/01/15 02:24:59;;;;;;;5.90;3.10;;;0.30;99.90;;;;;;4988116;28;20428;-84
2021/01/15 02:27:57;;;;;;;3.50;2.03;;;0.30;99.90;;;;;;4988072;28;20658;-84
2021/01/15 02:30:31;;;;;;;5.30;3.10;;;0.30;99.90;;;;;;4982121;28;20509;-83
2021/01/15 02:33:07;;;;;;;2.77;2.50;;;0.30;99.90;;;;;;4990384;28;21034;-83
2021/01/15 02:36:02;;;;;;;4.80;3.40;;;0.30;99.90;;;;;;5003158;28;20984;-83
2021/01/15 02:38:34;;;;;;;5.87;3.90;;;0.30;99.90;;;;;;4989198;28;20441;-82
2021/01/15 02:41:30;;;;;;;4.63;3.27;;;0.20;99.90;;;;;;4989315;28;21056;-83
2021/01/15 02:44:04;;;;;;;5.30;3.23;;;0.20;99.90;;;;;;4990690;28;20993;-84
2021/01/15 02:46:55;;;;;;;4.73;3.40;;;0.30;99.90;;;;;;4986841;28;20538;-82
2021/01/15 02:49:21;;;;;;;5.33;3.20;;;0.30;99.90;;;;;;4990305;28;20463;-82
2021/01/15 02:51:48;;;;;;;2.70;2.47;;;0.30;99.90;;;;;;4989835;28;20451;-84
2021/01/15 02:54:14;;;;;;;4.47;2.57;;;0.30;99.90;;;;;;4989547;28;20494;-85
2021/01/15 02:56:40;;;;;;;8.90;2.90;;;0.30;99.90;;;;;;4987374;28;20552;-84
2021/01/15 02:59:07;;;;;;;2.37;1.90;;;0.30;99.90;;;;;;4965325;28;20487;-80
2021/01/15 03:02:15;;;;;;;3.23;2.60;;;0.30;99.90;;;;;;4965083;28;20462;-84
2021/01/15 03:04:57;;;;;;;4.27;2.67;;;0.30;99.90;;;;;;4909336;29;20878;-85
2021/01/15 03:07:25;;;;;;;3.97;3.10;;;0.30;99.90;;;;;;4907122;29;20440;-83
2021/01/15 03:09:55;;;;;;;4.00;2.73;;;0.30;99.90;;;;;;4957041;28;20450;-86
2021/01/15 03:12:24;;;;;;;3.87;2.70;;;0.20;99.90;;;;;;4989472;28;20451;-85
2021/01/15 03:14:52;;;;;;;6.23;3.83;;;0.20;99.90;;;;;;5006216;28;20997;-85
2021/01/15 03:17:23;;;;;;;8.13;3.10;;;0.20;99.90;;;;;;4987820;28;20447;-83
2021/01/15 03:19:50;;;;;;;4.80;3.37;;;0.20;99.90;;;;;;4985557;28;20789;-86
2021/01/15 03:22:18;;;;;;;7.63;3.30;;;0.20;99.90;;;;;;4990372;28;20472;-86
2021/01/15 03:24:56;;;;;;;3.13;2.00;;;0.20;99.90;;;;;;4980198;28;20467;-85
2021/01/15 03:27:24;;;;;;;6.60;2.70;;;0.20;99.90;;;;;;4989587;28;20475;-86
2021/01/15 03:29:50;;;;;;;3.03;2.40;;;0.20;99.90;;;;;;4988509;28;20461;-86
2021/01/15 03:32:16;;;;;;;3.00;2.43;;;0.20;99.90;;;;;;4972615;28;20528;-85
2021/01/15 03:34:43;;;;;;;2.73;2.37;;;0.10;99.90;;;;;;4987840;28;20879;-85
2021/01/15 03:37:08;;;;;;;1.90;1.80;;;0.10;99.90;;;;;;4986466;28;20469;-84
2021/01/15 03:39:35;;;;;;;5.33;2.80;;;0.10;99.90;;;;;;5005436;28;20776;-82
2021/01/15 03:42:00;;;;;;;2.83;2.53;;;0.10;99.90;;;;;;4989544;28;20436;-85
2021/01/15 03:44:26;;;;;;;3.63;2.63;;;0.10;99.90;;;;;;4984923;28;20465;-85
2021/01/15 03:46:53;;;;;;;4.20;2.60;;;0.10;99.90;;;;;;4988540;28;20195;-83
2021/01/15 03:49:20;;;;;;;3.60;2.97;;;0.00;99.90;;;;;;4987498;28;20439;-83
2021/01/15 03:51:45;;;;;;;2.90;2.60;;;0.00;99.90;;;;;;4988821;28;20436;-81
2021/01/15 03:54:11;;;;;;;3.00;2.70;;;0.00;99.90;;;;;;4987408;28;20470;-86
2021/01/15 03:56:37;;;;;;;4.43;2.80;;;0.00;99.90;;;;;;4989481;28;20217;-86
2021/01/15 03:59:02;;;;;;;2.73;2.30;;;0.00;99.90;;;;;;5003497;28;20183;-85
2021/01/15 04:01:28;;;;;;;4.73;3.30;;;0.00;99.90;;;;;;4991593;28;20638;-84
2021/01/15 04:03:57;;;;;;;5.00;4.50;;;0.00;99.90;;;;;;4986259;28;20400;-84
2021/01/15 04:06:26;;;;;;;2.30;1.93;;;0.00;99.90;;;;;;4985210;28;20200;-84
2021/01/15 04:08:52;;;;;;;2.80;2.30;;;0.00;99.90;;;;;;4988072;28;20434;-84
2021/01/15 04:11:19;;;;;;;3.67;2.67;;;-0.10;99.90;;;;;;4990792;28;20444;-84
2021/01/15 04:13:45;;;;;;;3.27;2.50;;;-0.10;99.90;;;;;;4987239;28;20948;-85
2021/01/15 04:16:15;;;;;;;3.40;2.77;;;-0.10;99.90;;;;;;4989571;28;20517;-85
2021/01/15 04:18:41;;;;;;;3.70;2.33;;;-0.10;99.90;;;;;;4987631;28;20554;-85
2021/01/15 04:21:07;;;;;;;2.20;2.00;;;-0.20;99.90;;;;;;4983512;28;20428;-85
2021/01/15 04:23:34;;;;;;;4.13;2.73;;;-0.20;99.90;;;;;;4967515;28;20471;-86
2021/01/15 04:26:00;;;;;;;7.83;2.90;;;-0.20;99.90;;;;;;4984034;28;20465;-86
2021/01/15 04:28:25;;;;;;;3.10;2.80;;;-0.30;99.90;;;;;;4967243;28;20547;-85
2021/01/15 04:30:52;;;;;;;3.20;2.80;;;-0.30;99.90;;;;;;4987708;28;20975;-86
2021/01/15 04:33:17;;;;;;;6.73;2.90;;;-0.30;99.90;;;;;;4986426;28;20306;-86
2021/01/15 04:35:43;;;;;;;3.83;3.40;;;-0.30;99.90;;;;;;4987737;28;20564;-85
2021/01/15 04:38:10;;;;;;;5.80;3.90;;;-0.40;99.90;;;;;;4987084;28;20196;-84
2021/01/15 04:40:36;;;;;;;3.73;3.43;;;-0.40;99.90;;;;;;5005108;28;20214;-84
2021/01/15 04:43:01;;;;;;;4.10;3.30;;;-0.40;99.90;;;;;;4972055;28;20489;-86
2021/01/15 04:45:27;;;;;;;5.27;3.97;;;-0.40;99.90;;;;;;4989272;28;20197;-85
2021/01/15 04:47:54;;;;;;;4.77;3.77;;;-0.50;99.90;;;;;;4962914;28;20531;-88
2021/01/15 04:50:20;;;;;;;4.20;2.60;;;-0.50;99.90;;;;;;4991554;28;20445;-84
2021/01/15 04:52:49;;;;;;;3.73;2.87;;;-0.50;99.90;;;;;;4986499;28;20465;-84
2021/01/15 04:55:25;;;;;;;3.13;2.20;;;-0.50;99.90;;;;;;4988695;28;20465;-82
2021/01/15 04:57:54;;;;;;;3.60;3.20;;;-0.50;99.90;;;;;;4983799;28;20842;-85
2021/01/15 05:00:22;;;;;;;4.33;3.47;;;-0.50;99.90;;;;;;4985203;28;20439;-83
2021/01/15 05:02:49;;;;;;;4.10;3.43;;;-0.50;99.90;;;;;;4980629;28;20477;-84
2021/01/15 05:05:25;;;;;;;4.73;3.70;;;-0.50;99.90;;;;;;4982783;28;20525;-85
2021/01/15 05:08:09;;;;;;;2.67;2.47;;;-0.50;99.90;;;;;;4986909;28;20433;-84
2021/01/15 05:10:41;;;;;;;4.70;3.23;;;-0.50;99.90;;;;;;4983278;28;20478;-83
2021/01/15 05:13:09;;;;;;;4.70;3.60;;;-0.50;99.90;;;;;;4984892;28;20479;-85
2021/01/15 05:15:41;;;;;;;4.53;2.93;;;-0.60;99.90;;;;;;4983431;28;20562;-83
2021/01/15 05:18:07;;;;;;;6.53;3.07;;;-0.60;99.90;;;;;;4969647;28;20452;-84
2021/01/15 05:20:34;;;;;;;5.43;3.60;;;-0.60;99.90;;;;;;4982411;28;20776;-84
2021/01/15 05:23:01;;;;;;;3.70;3.40;;;-0.70;99.90;;;;;;4984310;28;20457;-83
2021/01/15 05:25:28;;;;;;;2.30;2.00;;;-0.70;99.90;;;;;;4983364;28;20433;-85
2021/01/15 05:27:54;;;;;;;5.53;2.97;;;-0.70;99.90;;;;;;4983840;28;20444;-84
2021/01/15 05:30:25;;;;;;;6.93;4.27;;;-0.70;99.90;;;;;;4985359;28;20446;-85
2021/01/15 05:32:53;;;;;;;7.90;4.10;;;-0.70;99.90;;;;;;4986026;28;20462;-85
2021/01/15 05:35:21;;;;;;;11.43;2.93;;;-0.70;99.90;;;;;;4982815;28;20493;-84
2021/01/15 05:37:56;;;;;;;4.23;3.00;;;-0.70;99.90;;;;;;4970410;28;20461;-84
2021/01/15 05:40:37;;;;;;;9.60;3.30;;;-0.70;99.90;;;;;;4983800;28;20443;-85
2021/01/15 05:43:04;;;;;;;8.70;3.33;;;-0.70;99.90;;;;;;4984000;28;20463;-84
2021/01/15 05:45:30;;;;;;;4.20;3.40;;;-0.70;99.90;;;;;;4966561;28;20449;-84
2021/01/15 05:47:56;;;;;;;5.63;3.33;;;-0.80;99.90;;;;;;4977028;28;20446;-84
2021/01/15 05:50:24;;;;;;;4.77;3.57;;;-0.80;99.90;;;;;;4963987;28;20256;-85
2021/01/15 05:52:58;;;;;;;4.23;2.50;;;-0.80;99.90;;;;;;4980170;28;20260;-85
2021/01/15 05:55:25;;;;;;;5.93;4.53;;;-0.80;99.90;;;;;;4979616;28;20469;-85
2021/01/15 05:57:51;;;;;;;4.50;3.53;;;-0.80;99.90;;;;;;4981397;28;20452;-84
2021/01/15 06:00:29;;;;;;;8.47;2.93;;;-0.90;99.90;;;;;;4984285;28;22147;-83
2021/01/15 06:02:57;;;;;;;5.93;3.43;;;-0.90;99.90;;;;;;4981944;28;20457;-84
2021/01/15 06:05:24;;;;;;;7.40;3.80;;;-0.90;99.90;;;;;;4976234;28;20489;-84
2021/01/15 06:07:57;;;;;;;3.70;3.40;;;-0.90;99.90;;;;;;4950200;28;20544;-82
2021/01/15 06:10:24;;;;;;;5.80;4.43;;;-0.90;99.90;;;;;;4970486;28;20447;-84
2021/01/15 06:12:51;;;;;;;5.83;3.90;;;-0.90;99.90;;;;;;4986232;28;20465;-82
2021/01/15 06:15:17;;;;;;;6.40;3.40;;;-0.80;99.90;;;;;;4986205;28;20483;-83
2021/01/15 06:17:49;;;;;;;8.97;4.07;;;-0.90;99.90;;;;;;5004064;28;21017;-82
2021/01/15 06:20:22;;;;;;;7.43;4.97;;;-0.90;99.90;;;;;;4984918;28;20445;-82
2021/01/15 06:22:54;;;;;;;6.20;4.20;;;-0.90;99.90;;;;;;4968939;28;20461;-84
2021/01/15 06:25:24;;;;;;;5.10;4.43;;;-0.90;99.90;;;;;;4984097;28;20481;-81
2021/01/15 06:27:56;;;;;;;7.27;4.67;;;-0.90;99.90;;;;;;4978777;28;20544;-83
2021/01/15 06:30:23;;;;;;;7.03;3.30;;;-0.90;99.90;;;;;;4985478;28;20439;-81
2021/01/15 06:32:50;;;;;;;6.20;4.23;;;-1.00;99.90;;;;;;4980905;28;20834;-82
2021/01/15 06:35:37;;;;;;;3.90;3.40;;;-1.00;99.90;;;;;;4952727;28;20554;-81
2021/01/15 06:38:11;;;;;;;6.83;3.63;;;-1.00;99.90;;;;;;4982578;28;20548;-85
2021/01/15 06:40:41;;;;;;;6.43;4.10;;;-1.00;99.90;;;;;;4982117;28;20429;-82
2021/01/15 06:43:07;;;;;;;5.93;4.53;;;-1.00;99.90;;;;;;4967933;28;20468;-84
2021/01/15 06:45:50;;;;;;;6.10;4.40;;;-1.00;99.90;;;;;;4982747;28;20981;-84
2021/01/15 06:48:19;;;;;;;5.80;4.33;;;-1.00;99.90;;;;;;4985342;28;20203;-83
2021/01/15 06:50:46;;;;;;;8.63;5.63;;;-1.10;99.90;;;;;;4982358;28;20513;-84
2021/01/15 06:53:30;;;;;;;5.00;3.83;;;-1.10;99.90;;;;;;4968717;28;20683;-83
2021/01/15 06:56:01;;;;;;;6.20;4.57;;;-1.10;99.90;;;;;;4968423;28;20468;-84
2021/01/15 06:58:37;;;;;;;6.67;5.37;;;-1.10;99.90;;;;;;4981597;28;21002;-81
2021/01/15 07:01:44;;;;;;;6.93;4.80;;;-1.10;99.90;;;;;;4995774;28;20884;-85
2021/01/15 07:04:37;;;;;;;7.27;5.00;;;-1.10;99.90;;;;;;4905435;29;20471;-81
2021/01/15 07:07:16;;;;;;;5.30;4.20;;;-1.10;99.90;;;;;;4975628;28;20456;-83
2021/01/15 07:09:44;;;;;;;6.70;5.07;;;-1.20;99.90;;;;;;4982038;28;20847;-83
2021/01/15 07:12:12;;;;;;;6.47;5.13;;;-1.20;99.90;;;;;;4968830;28;20472;-84
2021/01/15 07:14:45;;;;;;;7.13;5.33;;;-1.20;99.90;;;;;;4969347;28;20496;-85
2021/01/15 07:17:27;;;;;;;7.43;5.20;;;-1.20;99.90;;;;;;4982452;28;20488;-84
2021/01/15 07:20:03;;;;;;;7.43;4.40;;;-1.20;99.90;;;;;;4981998;28;20725;-82
2021/01/15 07:22:42;;;;;;;5.80;4.97;;;-1.20;99.90;;;;;;4982907;28;21250;-83
2021/01/15 07:25:09;;;;;;;8.03;6.03;;;-1.30;99.90;;;;;;4993700;28;20444;-83
2021/01/15 07:27:35;;;;;;;5.13;3.47;;;-1.20;99.90;;;;;;4978262;28;20472;-83
2021/01/15 07:30:04;;;;;;;4.63;3.57;;;-1.20;99.90;;;;;;4949327;28;20532;-83
2021/01/15 07:32:33;;;;;;;6.30;5.10;;;-1.20;99.90;;;;;;4967364;28;20229;-86
2021/01/15 07:35:00;;;;;;;11.00;8.47;;;-1.20;99.90;;;;;;4977304;28;20440;-84
2021/01/15 07:37:28;;;;;;;10.80;6.80;;;-1.20;99.90;;;;;;4983606;28;20464;-82
2021/01/15 07:40:16;;;;;;;13.13;7.93;;;-1.20;99.90;;;;;;4997855;28;20440;-86
2021/01/15 07:42:45;;;;;;;9.60;6.83;;;-1.20;99.90;;;;;;4983717;28;20789;-83
2021/01/15 07:45:23;;;;;;;8.97;6.17;;;-1.20;99.90;;;;;;4978005;28;21147;-82
2021/01/15 07:47:54;;;;;;;6.53;4.93;;;-1.20;99.90;;;;;;4970191;28;20795;-82
2021/01/15 07:50:43;;;;;;;8.27;5.80;;;-1.20;99.90;;;;;;4995895;28;20529;-81
2021/01/15 07:53:38;;;;;;;15.43;8.00;;;-1.10;99.90;;;;;;4951074;28;20552;-83
2021/01/15 07:56:04;;;;;;;8.53;6.87;;;-1.10;99.90;;;;;;4978355;28;20568;-81
2021/01/15 07:58:39;;;;;;;6.10;4.97;;;-1.10;99.90;;;;;;4950970;28;20852;-83
2021/01/15 08:01:12;;;;;;;6.77;5.60;;;-1.00;99.90;;;;;;4983161;28;20441;-85
2021/01/15 08:03:45;;;;;;;9.00;6.27;;;-1.00;99.90;;;;;;4984531;28;20536;-85
2021/01/15 08:06:12;;;;;;;6.50;4.90;;;-1.00;99.90;;;;;;4965769;28;20452;-83
2021/01/15 08:08:59;;;;;;;10.83;7.10;;;-1.00;99.90;;;;;;4969263;28;20421;-85
2021/01/15 08:11:25;;;;;;;7.70;5.30;;;-1.00;99.90;;;;;;4968439;28;20425;-82
2021/01/15 08:14:11;;;;;;;9.67;8.53;;;-0.90;99.90;;;;;;4980332;28;20930;-83
2021/01/15 08:16:44;;;;;;;8.70;6.73;;;-0.90;99.90;;;;;;4979236;28;20939;-84
2021/01/15 08:19:12;;;;;;;6.00;4.80;;;-0.90;99.90;;;;;;4982421;28;20439;-83
2021/01/15 08:21:40;;;;;;;11.30;7.00;;;-0.80;99.90;;;;;;4967328;28;20446;-84
2021/01/15 08:24:06;;;;;;;16.20;9.20;;;-0.80;99.90;;;;;;4984542;28;20456;-81
2021/01/15 08:26:37;;;;;;;9.60;6.57;;;-0.80;99.90;;;;;;4982747;28;20866;-82
2021/01/15 08:29:06;;;;;;;12.17;8.50;;;-0.70;99.90;;;;;;4967039;28;20939;-83
2021/01/15 08:31:32;;;;;;;5.67;4.60;;;-0.70;99.90;;;;;;4983252;28;20453;-84
2021/01/15 08:34:09;;;;;;;13.37;8.33;;;-0.70;99.90;;;;;;4969678;28;20469;-84
2021/01/15 08:36:43;;;;;;;16.00;6.50;;;-0.60;99.90;;;;;;4996216;28;20465;-82
2021/01/15 08:39:11;;;;;;;11.23;6.80;;;-0.50;99.90;;;;;;4984035;28;20425;-82
2021/01/15 08:41:38;;;;;;;8.43;6.23;;;-0.60;99.90;;;;;;4983878;28;20452;-83
2021/01/15 08:44:04;;;;;;;18.20;10.07;;;-0.60;99.90;;;;;;4967487;28;20457;-86
2021/01/15 08:46:32;;;;;;;10.70;7.33;;;-0.60;99.90;;;;;;4953284;28;20815;-84
2021/01/15 08:49:09;;;;;;;10.43;6.70;;;-0.60;99.90;;;;;;4982927;28;20446;-82
2021/01/15 08:51:36;;;;;;;14.27;8.50;;;-0.60;99.90;;;;;;4984527;28;20487;-82
2021/01/15 08:54:06;;;;;;;12.60;6.80;;;-0.60;99.90;;;;;;4983033;28;20451;-80
2021/01/15 08:56:48;;;;;;;15.07;6.97;;;-0.60;99.90;;;;;;4982490;28;20479;-82
2021/01/15 08:59:31;;;;;;;9.73;5.90;;;-0.60;99.90;;;;;;4984914;28;20855;-79
2021/01/15 09:02:01;;;;;;;9.90;7.10;;;-0.60;99.90;;;;;;4982294;28;20516;-87
2021/01/15 09:04:30;;;;;;;7.90;5.57;;;-0.60;99.90;;;;;;4968548;28;20484;-85
2021/01/15 09:07:07;;;;;;;9.97;6.17;;;-0.70;99.90;;;;;;4983487;28;20433;-86
2021/01/15 09:09:34;;;;;;;11.13;6.10;;;-0.60;99.90;;;;;;4983029;28;20765;-82
2021/01/15 09:12:07;;;;;;;12.80;8.17;;;-0.60;99.90;;;;;;4958505;28;20503;-82
2021/01/15 09:14:36;;;;;;;6.87;5.23;;;-0.60;99.90;;;;;;4982902;28;20814;-85
2021/01/15 09:17:06;;;;;;;14.60;8.53;;;-0.60;99.90;;;;;;4983166;28;20465;-83
2021/01/15 09:19:32;;;;;;;11.10;6.00;;;-0.50;99.90;;;;;;4962719;28;20482;-84
2021/01/15 09:22:17;;;;;;;10.97;7.47;;;-0.50;99.90;;;;;;4980325;28;20464;-81
2021/01/15 09:24:43;;;;;;;7.37;5.20;;;-0.50;99.90;;;;;;4980645;28;20442;-83
2021/01/15 09:27:10;;;;;;;9.73;7.23;;;-0.40;99.90;;;;;;4983265;28;20619;-81
2021/01/15 09:29:38;;;;;;;17.53;8.10;;;-0.40;99.90;;;;;;4966367;28;20438;-82
2021/01/15 09:32:06;;;;;;;6.83;5.70;;;-0.30;99.90;;;;;;4985172;28;20840;-86
2021/01/15 09:34:32;;;;;;;10.30;7.47;;;-0.30;99.90;;;;;;4981100;28;20564;-86
2021/01/15 09:36:59;;;;;;;16.63;8.17;;;-0.20;99.90;;;;;;4984490;28;20564;-88
2021/01/15 09:39:26;;;;;;;9.27;6.07;;;-0.20;99.90;;;;;;4980789;28;20442;-82
2021/01/15 09:41:54;;;;;;;13.07;7.60;;;-0.10;99.90;;;;;;4980758;28;20529;-83
2021/01/15 09:44:21;;;;;;;12.73;8.13;;;-0.10;99.90;;;;;;4997888;28;20459;-86
2021/01/15 09:46:49;;;;;;;8.90;6.33;;;0.00;99.90;;;;;;4968626;28;20438;-84
2021/01/15 09:49:15;;;;;;;7.00;6.13;;;0.00;99.90;;;;;;4967645;28;20449;-87
2021/01/15 09:51:41;;;;;;;10.63;6.50;;;0.00;99.90;;;;;;4980902;28;20437;-84
2021/01/15 09:54:07;;;;;;;11.47;6.70;;;0.10;99.90;;;;;;4951659;28;20464;-87
2021/01/15 09:56:35;;;;;;;9.97;6.50;;;0.10;99.90;;;;;;4967298;28;20469;-88
2021/01/15 09:59:02;;;;;;;9.33;6.40;;;0.20;99.90;;;;;;4985515;28;20425;-84
2021/01/15 10:01:30;;;;;;;6.57;5.87;;;0.20;99.90;;;;;;4969809;28;20428;-86
2021/01/15 10:03:59;;;;;;;9.47;6.47;;;0.30;99.90;;;;;;4985455;28;20554;-84
2021/01/15 10:06:28;;;;;;;8.90;6.57;;;0.30;99.90;;;;;;4988539;28;20813;-84
2021/01/15 10:08:59;;;;;;;10.97;7.30;;;0.30;99.90;;;;;;4985193;28;20424;-84
2021/01/15 10:11:30;;;;;;;9.00;7.47;;;0.40;99.90;;;;;;4987452;28;20441;-88
2021/01/15 10:14:00;;;;;;;8.73;7.47;;;0.40;99.90;;;;;;4984079;28;20500;-86
2021/01/15 10:16:27;;;;;;;6.10;5.50;;;0.50;99.90;;;;;;4989137;28;20887;-85
2021/01/15 10:18:54;;;;;;;13.63;8.53;;;0.50;99.90;;;;;;4986366;28;20530;-86
2021/01/15 10:21:21;;;;;;;12.30;7.40;;;0.60;99.90;;;;;;4987569;28;20939;-87
2021/01/15 10:23:47;;;;;;;10.00;6.13;;;0.60;99.90;;;;;;4985386;28;20637;-84
2021/01/15 10:26:24;;;;;;;8.67;5.83;;;0.60;99.90;;;;;;4984171;28;20457;-86
2021/01/15 10:28:59;;;;;;;7.93;6.67;;;0.70;99.90;;;;;;4985654;28;20432;-84
2021/01/15 10:31:26;;;;;;;12.77;7.60;;;0.70;99.90;;;;;;4981989;28;20433;-83
2021/01/15 10:33:54;;;;;;;7.00;5.80;;;0.80;99.90;;;;;;4981046;28;20467;-85
2021/01/15 10:36:20;;;;;;;11.10;6.83;;;0.80;99.90;;;;;;4998288;28;20999;-84
2021/01/15 10:38:47;;;;;;;6.80;6.13;;;0.90;99.90;;;;;;4973578;28;20816;-86
2021/01/15 10:41:19;;;;;;;5.03;4.17;;;1.00;99.90;;;;;;4988906;28;20531;-85
2021/01/15 10:43:47;;;;;;;12.67;6.30;;;1.00;99.90;;;;;;4987107;28;20476;-89
2021/01/15 10:46:13;;;;;;;5.67;5.13;;;1.00;99.90;;;;;;4994450;28;20432;-86
2021/01/15 10:48:40;;;;;;;10.80;6.23;;;1.00;99.90;;;;;;4974435;28;20553;-82
2021/01/15 10:51:06;;;;;;;10.97;6.23;;;1.10;99.90;;;;;;4992449;28;20204;-86
2021/01/15 10:53:32;;;;;;;9.97;6.90;;;1.20;99.90;;;;;;4987519;28;21043;-86
2021/01/15 10:55:58;;;;;;;7.30;5.20;;;1.30;99.90;;;;;;4995678;28;20459;-86
2021/01/15 10:58:24;;;;;;;6.80;6.10;;;1.20;99.90;;;;;;4973087;28;20185;-86
2021/01/15 11:00:50;;;;;;;9.17;6.83;;;1.20;99.90;;;;;;4986926;28;20437;-86
2021/01/15 11:03:15;;;;;;;7.60;5.90;;;1.20;99.90;;;;;;4991005;28;20217;-86
2021/01/15 11:05:41;;;;;;;14.40;6.97;;;1.30;99.90;;;;;;4991463;28;20201;-84
2021/01/15 11:08:06;;;;;;;10.27;6.87;;;1.30;99.90;;;;;;4988910;28;20547;-85
2021/01/15 11:10:32;;;;;;;9.67;6.70;;;1.40;99.90;;;;;;4974024;28;20287;-86
2021/01/15 11:12:58;;;;;;;9.97;6.77;;;1.40;99.90;;;;;;4975423;28;20718;-84
2021/01/15 11:15:27;;;;;;;9.60;6.37;;;1.40;99.90;;;;;;4987742;28;20215;-82
2021/01/15 11:17:52;;;;;;;9.93;6.80;;;1.50;99.90;;;;;;4991487;28;20692;-87
2021/01/15 11:20:19;;;;;;;9.77;7.27;;;1.60;99.90;;;;;;4988690;28;20446;-86
2021/01/15 11:22:48;;;;;;;7.77;5.60;;;1.60;99.90;;;;;;4988655;28;20206;-86
2021/01/15 11:25:14;;;;;;;7.73;6.10;;;1.70;99.90;;;;;;4984471;28;20451;-87
2021/01/15 11:27:42;;;;;;;8.60;5.93;;;1.70;99.90;;;;;;4971517;28;20449;-87
2021/01/15 11:30:08;;;;;;;6.73;4.70;;;1.70;99.90;;;;;;4990137;28;20414;-88
2021/01/15 11:32:37;;;;;;;6.50;5.10;;;1.70;99.90;;;;;;4972903;28;20480;-85
2021/01/15 11:35:07;;;;;;;9.83;5.73;;;1.70;99.90;;;;;;4988954;28;20481;-87
2021/01/15 11:37:36;;;;;;;10.17;7.40;;;1.70;99.90;;;;;;4984491;28;20459;-87
2021/01/15 11:40:11;;;;;;;13.43;8.27;;;1.80;99.90;;;;;;4994004;28;20429;-88
2021/01/15 11:42:37;;;;;;;10.33;6.97;;;1.80;99.90;;;;;;5001500;28;20506;-88
2021/01/15 11:45:04;;;;;;;6.60;5.67;;;1.80;99.90;;;;;;4973385;28;20534;-87
2021/01/15 11:47:30;;;;;;;16.50;7.03;;;1.90;99.90;;;;;;4988268;28;20185;-88
2021/01/15 11:49:56;;;;;;;11.27;7.63;;;1.90;99.90;;;;;;4984695;28;20440;-87
2021/01/15 11:52:21;;;;;;;13.53;7.77;;;2.00;99.90;;;;;;4990425;28;20194;-90
2021/01/15 11:54:48;;;;;;;12.40;7.40;;;2.10;99.90;;;;;;4969666;28;20448;-89
2021/01/15 11:57:13;;;;;;;11.23;7.27;;;2.10;99.90;;;;;;4989576;28;20608;-88
2021/01/15 11:59:42;;;;;;;10.07;7.23;;;2.20;99.90;;;;;;4991422;28;20438;-87
2021/01/15 12:02:08;;;;;;;11.63;8.27;;;2.20;99.90;;;;;;4992469;28;20179;-90
2021/01/15 12:04:34;;;;;;;9.57;6.10;;;2.30;99.90;;;;;;4990634;28;20480;-86
2021/01/15 12:07:02;;;;;;;10.33;6.47;;;2.30;99.90;;;;;;4993020;28;20443;-89
2021/01/15 12:09:28;;;;;;;5.13;3.93;;;2.30;99.90;;;;;;4990026;28;20182;-88
2021/01/15 12:12:00;;;;;;;6.93;3.80;;;2.30;99.90;;;;;;4993698;28;20811;-88
2021/01/15 12:14:26;;;;;;;8.83;5.97;;;2.30;99.90;;;;;;4989069;28;20205;-87
2021/01/15 12:16:58;;;;;;;7.53;5.20;;;2.30;99.90;;;;;;4990178;28;20528;-85
2021/01/15 12:19:23;;;;;;;6.67;4.00;;;2.30;99.90;;;;;;4996413;28;20263;-90
2021/01/15 12:21:49;;;;;;;6.33;3.90;;;2.40;99.90;;;;;;4974349;28;20940;-86
2021/01/15 12:24:16;;;;;;;7.13;5.20;;;2.40;99.90;;;;;;4991850;28;20208;-87
2021/01/15 12:26:42;;;;;;;10.20;6.73;;;2.50;99.90;;;;;;4976899;28;20335;-86
2021/01/15 12:29:13;;;;;;;8.77;5.57;;;2.50;99.90;;;;;;4989921;28;20429;-87
2021/01/15 12:31:39;;;;;;;7.77;5.57;;;2.60;99.90;;;;;;4989598;28;20460;-86
2021/01/15 12:34:05;;;;;;;10.80;5.97;;;2.60;99.90;;;;;;4975073;28;20467;-90
2021/01/15 12:36:31;;;;;;;9.53;7.40;;;2.70;99.90;;;;;;4973304;28;20493;-87
2021/01/15 12:38:58;;;;;;;9.27;5.93;;;2.70;99.90;;;;;;4989969;28;20463;-86
2021/01/15 12:41:24;;;;;;;8.13;5.10;;;2.70;99.90;;;;;;4991115;28;20417;-85
2021/01/15 12:43:50;;;;;;;8.60;5.27;;;2.90;99.90;;;;;;4984930;28;20997;-84
2021/01/15 12:46:15;;;;;;;6.10;4.57;;;2.90;99.90;;;;;;4989553;28;20197;-85
2021/01/15 12:48:41;;;;;;;9.43;5.47;;;2.90;99.90;;;;;;4968044;28;20537;-87
2021/01/15 12:51:07;;;;;;;6.37;4.93;;;2.90;99.90;;;;;;4984416;28;20190;-87
2021/01/15 12:53:36;;;;;;;9.73;5.80;;;2.90;99.90;;;;;;4984346;28;20237;-87
2021/01/15 12:56:01;;;;;;;8.83;6.00;;;2.90;99.90;;;;;;4966294;28;20476;-85
2021/01/15 12:58:27;;;;;;;10.13;6.20;;;2.90;99.90;;;;;;4986939;28;20432;-86
2021/01/15 13:00:55;;;;;;;8.30;6.37;;;3.10;99.90;;;;;;4972352;28;20941;-84
2021/01/15 13:03:23;;;;;;;8.43;5.30;;;3.00;99.90;;;;;;4985727;28;20456;-87